createdAt,value
2023-03-06T00:01:24.855Z,16.30
2023-03-06T00:04:28.339Z,20.00
2023-03-06T00:07:31.518Z,29.70
2023-03-06T00:10:35.289Z,24.92
2023-03-06T00:13:38.955Z,35.75
2023-03-06T00:16:42.390Z,29.23
2023-03-06T00:19:45.623Z,21.17
2023-03-06T00:22:49.649Z,13.95
2023-03-06T00:25:52.825Z,10.80
2023-03-06T00:28:56.448Z,12.50
2023-03-06T00:31:59.941Z,11.10
2023-03-06T00:35:03.596Z,11.75
2023-03-06T00:38:07.369Z,17.45
2023-03-06T00:41:13.814Z,19.10
2023-03-06T00:44:17.079Z,19.12
2023-03-06T00:47:21.818Z,19.75
2023-03-06T00:50:24.996Z,14.43
2023-03-06T00:53:29.521Z,15.93
2023-03-06T00:56:32.588Z,14.87
2023-03-06T00:59:36.036Z,17.60
2023-03-06T01:02:39.545Z,13.77
2023-03-06T01:05:43.254Z,13.13
2023-03-06T01:08:47.092Z,10.93
2023-03-06T01:11:50.646Z,13.25
2023-03-06T01:14:53.825Z,11.00
2023-03-06T01:17:57.477Z,13.20
2023-03-06T01:21:00.654Z,11.50
2023-03-06T01:24:04.297Z,15.30
2023-03-06T01:27:07.680Z,9.88
2023-03-06T01:30:12.500Z,10.13
2023-03-06T01:33:16.318Z,12.30
2023-03-06T01:36:21.030Z,10.90
2023-03-06T01:39:24.458Z,14.27
2023-03-06T01:42:28.715Z,11.75
2023-03-06T01:45:35.090Z,10.68
2023-03-06T01:48:40.076Z,12.95
2023-03-06T01:52:05.991Z,14.03
2023-03-06T01:55:16.102Z,12.32
2023-03-06T01:58:20.210Z,11.57
2023-03-06T02:01:23.895Z,15.67
2023-03-06T02:04:29.424Z,13.52
2023-03-06T02:07:34.639Z,13.77
2023-03-06T02:10:38.093Z,14.93
2023-03-06T02:13:42.218Z,12.52
2023-03-06T02:16:45.793Z,12.98
2023-03-06T02:20:02.625Z,14.23
2023-03-06T02:23:24.754Z,15.90
2023-03-06T02:26:29.841Z,13.73
2023-03-06T02:29:33.778Z,12.23
2023-03-06T02:32:37.521Z,12.93
2023-03-06T02:35:46.985Z,15.40
2023-03-06T02:38:51.615Z,12.07
2023-03-06T02:41:55.921Z,12.00
2023-03-06T02:45:02.447Z,13.70
2023-03-06T02:48:06.959Z,14.07
2023-03-06T02:51:10.072Z,11.20
2023-03-06T02:54:13.479Z,10.80
2023-03-06T02:57:18.669Z,9.00
2023-03-06T03:00:23.686Z,12.85
2023-03-06T03:03:26.857Z,10.47
2023-03-06T03:06:31.791Z,11.65
2023-03-06T03:09:37.102Z,10.63
2023-03-06T03:12:42.750Z,10.85
2023-03-06T03:15:46.196Z,8.65
2023-03-06T03:18:51.193Z,9.38
2023-03-06T03:21:54.972Z,9.35
2023-03-06T03:24:59.012Z,10.90
2023-03-06T03:28:02.818Z,10.85
2023-03-06T03:31:09.136Z,10.50
2023-03-06T03:34:12.623Z,12.47
2023-03-06T03:37:16.727Z,8.38
2023-03-06T03:40:20.091Z,11.48
2023-03-06T03:43:25.221Z,9.23
2023-03-06T03:46:28.540Z,10.43
2023-03-06T03:49:32.179Z,12.70
2023-03-06T03:52:35.465Z,9.48
2023-03-06T03:55:39.511Z,8.70
2023-03-06T03:58:43.085Z,9.50
2023-03-06T04:01:47.190Z,24.92
2023-03-06T04:04:51.775Z,10.43
2023-03-06T04:07:56.625Z,12.35
2023-03-06T04:11:00.543Z,12.05
2023-03-06T04:14:05.725Z,12.27
2023-03-06T04:17:10.560Z,12.88
2023-03-06T04:20:15.075Z,9.93
2023-03-06T04:23:21.349Z,10.40
2023-03-06T04:26:24.487Z,11.77
2023-03-06T04:29:28.598Z,11.27
2023-03-06T04:32:32.237Z,12.77
2023-03-06T04:35:36.404Z,10.20
2023-03-06T04:38:40.025Z,12.95
2023-03-06T04:41:43.981Z,12.77
2023-03-06T04:44:47.211Z,13.10
2023-03-06T04:47:50.698Z,13.20
2023-03-06T04:50:53.948Z,9.60
2023-03-06T04:53:57.535Z,11.63
2023-03-06T04:57:00.824Z,7.43
2023-03-06T05:00:06.990Z,10.70
2023-03-06T05:03:12.388Z,10.25
2023-03-06T05:06:16.114Z,10.53
2023-03-06T05:09:19.640Z,11.25
2023-03-06T05:15:47.515Z,16.05
2023-03-06T05:18:51.264Z,12.80
2023-03-06T05:21:57.365Z,12.43
2023-03-06T05:25:01.009Z,10.05
2023-03-06T05:28:04.310Z,10.60
2023-03-06T05:31:08.063Z,12.63
2023-03-06T05:34:15.463Z,7.00
2023-03-06T05:37:18.939Z,12.00
2023-03-06T05:40:22.680Z,10.60
2023-03-06T05:43:26.163Z,6.30
2023-03-06T05:46:29.391Z,10.68
2023-03-06T05:49:35.714Z,12.68
2023-03-06T05:52:40.050Z,14.68
2023-03-06T05:55:43.580Z,10.57
2023-03-06T05:58:46.974Z,11.10
2023-03-06T06:01:50.412Z,14.32
2023-03-06T06:04:56.086Z,14.43
2023-03-06T06:08:02.564Z,8.00
2023-03-06T06:11:07.517Z,15.35
2023-03-06T06:14:10.995Z,17.00
2023-03-06T06:17:14.689Z,15.88
2023-03-06T06:20:18.958Z,17.23
2023-03-06T06:23:22.722Z,12.93
2023-03-06T06:26:26.394Z,16.95
2023-03-06T06:29:30.224Z,15.77
2023-03-06T06:32:33.711Z,12.43
2023-03-06T06:35:37.439Z,15.13
2023-03-06T06:38:40.715Z,16.67
2023-03-06T06:42:02.365Z,11.82
2023-03-06T06:45:11.744Z,13.82
2023-03-06T06:48:17.879Z,17.02
2023-03-06T06:51:23.421Z,14.25
2023-03-06T06:54:28.518Z,17.85
2023-03-06T06:57:31.862Z,18.60
2023-03-06T07:00:35.254Z,19.90
2023-03-06T07:03:39.657Z,18.42
2023-03-06T07:06:43.544Z,25.65
2023-03-06T07:09:47.062Z,15.33
2023-03-06T07:12:50.729Z,19.23
2023-03-06T07:15:54.240Z,22.20
2023-03-06T07:18:57.704Z,15.00
2023-03-06T07:22:00.882Z,17.58
2023-03-06T07:25:06.382Z,17.83
2023-03-06T07:28:09.439Z,15.00
2023-03-06T07:31:13.133Z,15.93
2023-03-06T07:34:16.817Z,18.42
2023-03-06T07:37:20.568Z,14.05
2023-03-06T07:40:24.595Z,19.60
2023-03-06T07:43:28.198Z,18.58
2023-03-06T07:46:33.032Z,19.77
2023-03-06T07:49:38.061Z,20.05
2023-03-06T07:52:41.861Z,22.02
2023-03-06T07:55:45.700Z,24.20
2023-03-06T07:58:49.232Z,19.35
2023-03-06T08:01:55.562Z,17.50
2023-03-06T08:04:59.033Z,19.98
2023-03-06T08:08:02.371Z,16.42
2023-03-06T08:11:06.869Z,17.63
2023-03-06T08:14:10.266Z,16.92
2023-03-06T08:17:13.969Z,20.37
2023-03-06T08:20:18.683Z,17.62
2023-03-06T08:23:21.976Z,15.63
2023-03-06T08:26:27.674Z,18.83
2023-03-06T08:29:32.336Z,17.50
2023-03-06T08:32:38.727Z,23.30
2023-03-06T08:35:42.298Z,15.93
2023-03-06T08:38:45.546Z,19.85
2023-03-06T08:41:48.989Z,19.83
2023-03-06T08:44:52.191Z,17.55
2023-03-06T08:47:55.648Z,21.27
2023-03-06T08:50:59.791Z,19.60
2023-03-06T08:54:03.565Z,18.75
2023-03-06T08:57:07.197Z,17.90
2023-03-06T09:00:11.325Z,22.10
2023-03-06T09:03:14.820Z,21.57
2023-03-06T09:06:18.285Z,21.73
2023-03-06T09:09:21.484Z,15.45
2023-03-06T09:12:25.676Z,22.07
2023-03-06T09:15:29.178Z,22.33
2023-03-06T09:18:33.340Z,20.20
2023-03-06T09:21:36.494Z,20.30
2023-03-06T09:24:39.978Z,18.67
2023-03-06T09:27:43.092Z,19.98
2023-03-06T09:30:46.570Z,19.10
2023-03-06T09:33:50.087Z,17.10
2023-03-06T09:36:57.238Z,16.17
2023-03-06T09:40:00.708Z,22.65
2023-03-06T09:43:04.980Z,22.30
2023-03-06T09:46:14.185Z,21.08
2023-03-06T09:49:55.511Z,18.00
2023-03-06T09:53:17.423Z,17.50
2023-03-06T09:56:23.708Z,21.80
2023-03-06T09:59:28.794Z,21.73
2023-03-06T10:02:54.373Z,18.00
2023-03-06T10:06:04.704Z,19.23
2023-03-06T10:09:13.443Z,19.58
2023-03-06T10:12:39.053Z,20.45
2023-03-06T10:15:45.247Z,20.10
2023-03-06T10:18:48.670Z,17.83
2023-03-06T10:23:00.795Z,16.75
2023-03-06T10:26:19.726Z,18.75
2023-03-06T10:30:02.277Z,16.73
2023-03-06T10:33:23.078Z,19.05
2023-03-06T10:36:27.992Z,18.10
2023-03-06T10:39:31.675Z,18.13
2023-03-06T10:42:34.794Z,21.12
2023-03-06T10:45:49.768Z,19.83
2023-03-06T10:48:59.057Z,19.40
2023-03-06T10:52:07.041Z,19.12
2023-03-06T10:55:31.868Z,16.45
2023-03-06T10:58:35.450Z,15.02
2023-03-06T11:01:40.944Z,19.27
2023-03-06T11:04:47.488Z,18.58
2023-03-06T11:07:56.352Z,16.70
2023-03-06T11:11:06.432Z,21.53
2023-03-06T11:14:27.602Z,17.15
2023-03-06T11:17:32.273Z,16.20
2023-03-06T11:20:52.610Z,19.10
2023-03-06T11:24:03.505Z,21.15
2023-03-06T11:27:34.489Z,17.23
2023-03-06T11:30:52.650Z,18.30
2023-03-06T11:34:08.404Z,19.00
2023-03-06T11:37:37.267Z,19.40
2023-03-06T11:40:46.311Z,15.95
2023-03-06T11:44:22.094Z,19.92
2023-03-06T11:47:44.931Z,18.70
2023-03-06T11:50:53.377Z,18.48
2023-03-06T11:54:00.210Z,16.60
2023-03-06T11:57:11.583Z,19.70
2023-03-06T12:00:47.449Z,19.10
2023-03-06T12:04:03.296Z,18.90
2023-03-06T12:07:36.058Z,19.17
2023-03-06T12:10:51.794Z,16.63
2023-03-06T12:13:55.359Z,17.42
2023-03-06T12:17:06.985Z,20.30
2023-03-06T12:20:34.746Z,17.97
2023-03-06T12:23:59.902Z,16.15
2023-03-06T12:27:20.170Z,15.43
2023-03-06T12:30:57.181Z,16.20
2023-03-06T12:34:07.098Z,20.30
2023-03-06T12:37:36.367Z,16.17
2023-03-06T12:41:15.893Z,18.30
2023-03-06T12:44:27.989Z,20.13
2023-03-06T12:47:38.954Z,16.20
2023-03-06T12:50:45.884Z,22.58
2023-03-06T12:53:51.501Z,19.63
2023-03-06T12:56:57.373Z,17.70
2023-03-06T13:00:00.557Z,18.70
2023-03-06T13:03:51.302Z,22.13
2023-03-06T13:07:09.966Z,16.40
2023-03-06T13:10:26.771Z,22.83
2023-03-06T13:13:33.370Z,22.00
2023-03-06T13:16:37.361Z,20.80
2023-03-06T13:19:40.666Z,18.80
2023-03-06T13:22:46.712Z,18.35
2023-03-06T13:25:50.951Z,20.43
2023-03-06T13:28:57.882Z,18.10
2023-03-06T13:32:01.535Z,18.05
2023-03-06T13:35:34.693Z,15.68
2023-03-06T13:38:41.800Z,16.70
2023-03-06T13:41:59.304Z,21.37
2023-03-06T13:45:15.074Z,17.73
2023-03-06T13:48:43.817Z,19.00
2023-03-06T13:52:10.984Z,19.75
2023-03-06T13:55:41.298Z,19.52
2023-03-06T13:59:15.408Z,18.13
2023-03-06T14:02:24.988Z,18.12
2023-03-06T14:05:54.948Z,17.60
2023-03-06T14:08:59.372Z,16.23
2023-03-06T14:12:37.203Z,18.80
2023-03-06T14:15:40.300Z,19.35
2023-03-06T14:18:48.300Z,16.48
2023-03-06T14:21:57.274Z,18.10
2023-03-06T14:25:08.101Z,22.27
2023-03-06T14:28:29.273Z,19.10
2023-03-06T14:31:42.730Z,21.50
2023-03-06T14:34:47.750Z,18.60
2023-03-06T14:37:55.780Z,19.42
2023-03-06T14:40:59.202Z,17.90
2023-03-06T14:44:18.356Z,18.73
2023-03-06T14:47:27.605Z,18.95
2023-03-06T14:50:34.361Z,17.75
2023-03-06T14:53:38.009Z,20.43
2023-03-06T14:56:43.292Z,29.42
2023-03-06T15:00:00.250Z,26.20
2023-03-06T15:03:07.846Z,21.73
2023-03-06T15:06:17.808Z,22.20
2023-03-06T15:09:25.489Z,21.73
2023-03-06T15:12:34.135Z,20.17
2023-03-06T15:15:37.760Z,23.93
2023-03-06T15:18:55.789Z,18.40
2023-03-06T15:22:01.474Z,20.65
2023-03-06T15:25:19.942Z,21.67
2023-03-06T15:28:26.107Z,22.25
2023-03-06T15:31:31.988Z,21.83
2023-03-06T15:34:35.605Z,23.58
2023-03-06T15:37:38.874Z,19.20
2023-03-06T15:40:56.001Z,21.58
2023-03-06T15:44:01.503Z,20.02
2023-03-06T15:47:09.189Z,17.63
2023-03-06T15:50:24.992Z,20.20
2023-03-06T15:53:28.702Z,22.52
2023-03-06T15:56:35.375Z,25.73
2023-03-06T15:59:44.404Z,24.83
2023-03-06T16:02:47.881Z,19.45
2023-03-06T16:05:51.500Z,24.42
2023-03-06T16:08:54.970Z,22.40
2023-03-06T16:11:59.601Z,23.75
2023-03-06T16:15:03.466Z,23.08
2023-03-06T16:18:10.516Z,29.37
2023-03-06T16:21:14.938Z,25.42
2023-03-06T16:24:19.312Z,31.37
2023-03-06T16:27:26.071Z,29.23
2023-03-06T16:30:31.599Z,23.87
2023-03-06T16:33:35.405Z,29.17
2023-03-06T16:36:39.368Z,24.25
2023-03-06T16:39:43.375Z,24.33
2023-03-06T16:42:48.604Z,25.90
2023-03-06T16:45:52.776Z,25.12
2023-03-06T16:48:57.112Z,24.20
2023-03-06T16:52:01.241Z,27.80
2023-03-06T16:55:05.167Z,26.92
2023-03-06T16:58:08.840Z,31.70
2023-03-06T17:01:16.605Z,47.03
2023-03-06T17:04:20.170Z,90.47
2023-03-06T17:07:23.669Z,54.47
2023-03-06T17:10:27.845Z,38.05
2023-03-06T17:13:31.867Z,34.45
2023-03-06T17:16:39.394Z,29.02
2023-03-06T17:19:47.446Z,35.23
2023-03-06T17:22:51.032Z,53.08
2023-03-06T17:26:07.254Z,42.42
2023-03-06T17:29:12.518Z,26.87
2023-03-06T17:32:16.460Z,28.58
2023-03-06T17:35:20.541Z,33.45
2023-03-06T17:38:26.403Z,36.92
2023-03-06T17:41:33.160Z,34.60
2023-03-06T17:44:38.351Z,30.85
2023-03-06T17:47:44.697Z,26.52
2023-03-06T17:50:57.785Z,28.90
2023-03-06T17:54:02.158Z,29.23
2023-03-06T17:57:07.450Z,33.92
2023-03-06T18:00:12.086Z,30.70
2023-03-06T18:03:16.476Z,31.12
2023-03-06T18:06:22.795Z,29.08
2023-03-06T18:09:26.602Z,29.58
2023-03-06T18:12:32.031Z,26.00
2023-03-06T18:15:41.009Z,27.73
2023-03-06T18:18:45.352Z,30.23
2023-03-06T18:21:49.713Z,28.07
2023-03-06T18:24:54.969Z,28.23
2023-03-06T18:27:59.671Z,29.87
2023-03-06T18:31:19.369Z,26.57
2023-03-06T18:34:23.444Z,27.40
2023-03-06T18:37:29.931Z,34.50
2023-03-06T18:40:34.901Z,29.37
2023-03-06T18:43:40.366Z,30.95
2023-03-06T18:46:46.101Z,30.60
2023-03-06T18:49:52.032Z,29.37
2023-03-06T18:52:56.618Z,29.97
2023-03-06T18:56:04.125Z,27.25
2023-03-06T18:59:11.073Z,27.10
2023-03-06T19:02:16.696Z,37.43
2023-03-06T19:05:23.978Z,34.17
2023-03-06T19:08:29.212Z,35.10
2023-03-06T19:11:35.881Z,34.97
2023-03-06T19:14:43.130Z,35.20
2023-03-06T19:17:50.364Z,35.30
2023-03-06T19:20:57.156Z,37.53
2023-03-06T19:24:04.109Z,36.37
2023-03-06T19:27:09.684Z,39.70
2023-03-06T19:30:15.235Z,37.92
2023-03-06T19:33:23.829Z,40.20
2023-03-06T19:36:33.648Z,41.45
2023-03-06T19:39:40.267Z,38.20
2023-03-06T19:42:45.871Z,39.83
2023-03-06T19:45:52.821Z,41.13
2023-03-06T19:49:03.166Z,46.33
2023-03-06T19:52:08.252Z,57.53
2023-03-06T19:55:12.375Z,64.47
2023-03-06T19:58:17.516Z,69.72
2023-03-06T20:01:23.625Z,65.15
2023-03-06T20:04:35.035Z,61.80
2023-03-06T20:07:39.168Z,62.00
2023-03-06T20:10:44.163Z,54.28
2023-03-06T20:13:50.124Z,61.45
2023-03-06T20:16:54.844Z,52.28
2023-03-06T20:20:00.851Z,53.13
2023-03-06T20:23:06.502Z,51.47
2023-03-06T20:26:13.284Z,58.10
2023-03-06T20:29:19.343Z,54.58
2023-03-06T20:32:25.307Z,49.65
2023-03-06T20:35:30.718Z,59.10
2023-03-06T20:38:34.873Z,68.43
2023-03-06T20:41:40.612Z,66.40
2023-03-06T20:44:45.004Z,67.75
2023-03-06T20:47:50.945Z,51.40
2023-03-06T20:51:18.566Z,63.87
2023-03-06T20:54:23.651Z,77.25
2023-03-06T20:57:31.328Z,83.97
2023-03-06T21:00:35.056Z,77.35
2023-03-06T21:03:39.852Z,74.40
2023-03-06T21:06:47.335Z,70.90
2023-03-06T21:09:52.511Z,69.25
2023-03-06T21:12:57.775Z,63.08
2023-03-06T21:16:07.116Z,60.25
2023-03-06T21:19:12.149Z,66.60
2023-03-06T21:22:16.754Z,64.47
2023-03-06T21:25:21.246Z,63.78
2023-03-06T21:28:25.062Z,66.13
2023-03-06T21:31:31.652Z,60.58
2023-03-06T21:34:35.353Z,81.55
2023-03-06T21:37:38.865Z,76.90
2023-03-06T21:40:42.913Z,66.07
2023-03-06T21:43:46.821Z,81.35
2023-03-06T21:46:50.237Z,80.35
2023-03-06T21:49:53.781Z,83.25
2023-03-06T21:52:57.614Z,82.95
2023-03-06T21:56:01.944Z,80.85
2023-03-06T21:59:05.187Z,81.87
2023-03-06T22:02:10.740Z,78.82
2023-03-06T22:05:14.538Z,86.53
2023-03-06T22:08:21.347Z,72.97
2023-03-06T22:11:26.411Z,74.45
2023-03-06T22:14:30.003Z,65.05
2023-03-06T22:17:33.529Z,63.42
2023-03-06T22:20:39.649Z,62.50
2023-03-06T22:23:43.512Z,59.13
2023-03-06T22:26:46.741Z,62.45
2023-03-06T22:29:50.305Z,62.07
2023-03-06T22:32:53.670Z,62.50
2023-03-06T22:36:08.113Z,63.53
2023-03-06T22:39:13.619Z,54.30
2023-03-06T22:42:17.384Z,57.03
2023-03-06T22:45:20.512Z,61.95
2023-03-06T22:48:23.959Z,60.80
2023-03-06T22:51:29.521Z,53.97
2023-03-06T22:54:34.437Z,54.05
2023-03-06T22:57:37.526Z,54.78
2023-03-06T23:00:42.164Z,53.40
2023-03-06T23:03:51.616Z,54.03
2023-03-06T23:06:55.119Z,47.90
2023-03-06T23:09:58.949Z,46.40
2023-03-06T23:13:20.379Z,45.45
2023-03-06T23:16:41.666Z,45.00
2023-03-06T23:20:10.135Z,46.03
2023-03-06T23:23:31.651Z,50.63
2023-03-06T23:26:36.186Z,44.88
2023-03-06T23:29:39.836Z,47.17
2023-03-06T23:32:46.013Z,46.67
2023-03-06T23:35:50.260Z,50.53
2023-03-06T23:38:53.715Z,56.25
2023-03-06T23:41:57.221Z,48.70
2023-03-06T23:45:00.795Z,48.10
2023-03-06T23:48:07.356Z,49.25
2023-03-06T23:51:17.810Z,55.65
2023-03-06T23:54:21.177Z,51.88
2023-03-06T23:57:25.489Z,49.53
